sensor_id;sensor_type;location;lat;lon;timestamp;P1;durP1;ratioP1;P2;durP2;ratioP2
11220;SDS011;8517;53.546;10.104;2024-02-15T00:01:46;15.23;;;12.53;;
11220;SDS011;8517;53.546;10.104;2024-02-15T00:04:12;16.00;;;13.13;;
11220;SDS011;8517;53.546;10.104;2024-02-15T00:06:39;15.87;;;12.97;;
11220;SDS011;8517;53.546;10.104;2024-02-15T00:09:06;16.10;;;13.30;;
11220;SDS011;8517;53.546;10.104;2024-02-15T00:11:33;17.33;;;13.57;;
11220;SDS011;8517;53.546;10.104;2024-02-15T00:14:00;16.10;;;12.73;;
11220;SDS011;8517;53.546;10.104;2024-02-15T00:16:26;14.40;;;12.17;;
11220;SDS011;8517;53.546;10.104;2024-02-15T00:18:55;15.23;;;11.73;;
11220;SDS011;8517;53.546;10.104;2024-02-15T00:21:22;17.00;;;12.57;;
11220;SDS011;8517;53.546;10.104;2024-02-15T00:23:55;14.60;;;13.00;;
11220;SDS011;8517;53.546;10.104;2024-02-15T00:26:25;15.60;;;12.90;;
11220;SDS011;8517;53.546;10.104;2024-02-15T00:28:52;14.23;;;11.60;;
11220;SDS011;8517;53.546;10.104;2024-02-15T00:31:18;17.00;;;14.60;;
11220;SDS011;8517;53.546;10.104;2024-02-15T00:33:45;21.27;;;14.23;;
11220;SDS011;8517;53.546;10.104;2024-02-15T00:36:13;19.07;;;14.63;;
11220;SDS011;8517;53.546;10.104;2024-02-15T00:38:40;18.67;;;14.90;;
11220;SDS011;8517;53.546;10.104;2024-02-15T00:41:08;14.27;;;12.57;;
11220;SDS011;8517;53.546;10.104;2024-02-15T00:43:35;18.73;;;15.10;;
11220;SDS011;8517;53.546;10.104;2024-02-15T00:46:02;18.10;;;15.67;;
11220;SDS011;8517;53.546;10.104;2024-02-15T00:48:29;19.10;;;14.73;;
11220;SDS011;8517;53.546;10.104;2024-02-15T00:50:56;19.93;;;16.73;;
11220;SDS011;8517;53.546;10.104;2024-02-15T00:53:25;18.50;;;15.90;;
11220;SDS011;8517;53.546;10.104;2024-02-15T00:55:51;18.20;;;15.23;;
11220;SDS011;8517;53.546;10.104;2024-02-15T00:58:18;18.00;;;16.07;;
11220;SDS011;8517;53.546;10.104;2024-02-15T01:00:46;20.30;;;17.60;;
11220;SDS011;8517;53.546;10.104;2024-02-15T01:03:13;17.90;;;15.63;;
11220;SDS011;8517;53.546;10.104;2024-02-15T01:05:41;18.30;;;16.37;;
11220;SDS011;8517;53.546;10.104;2024-02-15T01:08:08;20.50;;;16.87;;
11220;SDS011;8517;53.546;10.104;2024-02-15T01:10:36;18.70;;;16.00;;
11220;SDS011;8517;53.546;10.104;2024-02-15T01:13:04;19.80;;;16.77;;
11220;SDS011;8517;53.546;10.104;2024-02-15T01:15:30;22.10;;;17.33;;
11220;SDS011;8517;53.546;10.104;2024-02-15T01:17:57;19.73;;;15.70;;
11220;SDS011;8517;53.546;10.104;2024-02-15T01:20:24;20.00;;;16.47;;
11220;SDS011;8517;53.546;10.104;2024-02-15T01:22:51;20.37;;;17.10;;
11220;SDS011;8517;53.546;10.104;2024-02-15T01:25:18;18.43;;;16.43;;
11220;SDS011;8517;53.546;10.104;2024-02-15T01:27:47;18.17;;;16.20;;
11220;SDS011;8517;53.546;10.104;2024-02-15T01:30:14;19.07;;;16.30;;
11220;SDS011;8517;53.546;10.104;2024-02-15T01:32:41;20.20;;;16.17;;
11220;SDS011;8517;53.546;10.104;2024-02-15T01:35:08;21.87;;;17.20;;
11220;SDS011;8517;53.546;10.104;2024-02-15T01:37:35;17.10;;;15.17;;
11220;SDS011;8517;53.546;10.104;2024-02-15T01:40:03;18.37;;;15.33;;
11220;SDS011;8517;53.546;10.104;2024-02-15T01:42:31;18.77;;;14.23;;
11220;SDS011;8517;53.546;10.104;2024-02-15T01:44:59;18.20;;;13.70;;
11220;SDS011;8517;53.546;10.104;2024-02-15T01:47:26;17.27;;;14.90;;
11220;SDS011;8517;53.546;10.104;2024-02-15T01:49:54;18.43;;;14.90;;
11220;SDS011;8517;53.546;10.104;2024-02-15T01:52:21;17.23;;;15.27;;
11220;SDS011;8517;53.546;10.104;2024-02-15T01:54:49;17.70;;;14.83;;
11220;SDS011;8517;53.546;10.104;2024-02-15T01:57:18;17.47;;;13.93;;
11220;SDS011;8517;53.546;10.104;2024-02-15T01:59:46;18.87;;;15.23;;
11220;SDS011;8517;53.546;10.104;2024-02-15T02:02:16;18.70;;;15.37;;
11220;SDS011;8517;53.546;10.104;2024-02-15T02:04:46;17.33;;;15.30;;
11220;SDS011;8517;53.546;10.104;2024-02-15T02:07:13;19.20;;;15.93;;
11220;SDS011;8517;53.546;10.104;2024-02-15T02:09:40;19.03;;;14.33;;
11220;SDS011;8517;53.546;10.104;2024-02-15T02:12:07;18.67;;;16.57;;
11220;SDS011;8517;53.546;10.104;2024-02-15T02:14:35;19.07;;;16.50;;
11220;SDS011;8517;53.546;10.104;2024-02-15T02:17:11;20.53;;;15.87;;
11220;SDS011;8517;53.546;10.104;2024-02-15T02:19:41;18.57;;;16.57;;
11220;SDS011;8517;53.546;10.104;2024-02-15T02:22:09;17.67;;;15.07;;
11220;SDS011;8517;53.546;10.104;2024-02-15T02:24:40;18.93;;;16.40;;
11220;SDS011;8517;53.546;10.104;2024-02-15T02:27:13;22.60;;;16.80;;
11220;SDS011;8517;53.546;10.104;2024-02-15T02:29:42;21.03;;;17.13;;
11220;SDS011;8517;53.546;10.104;2024-02-15T02:32:11;19.30;;;16.47;;
11220;SDS011;8517;53.546;10.104;2024-02-15T02:34:38;19.93;;;16.37;;
11220;SDS011;8517;53.546;10.104;2024-02-15T02:37:05;20.87;;;16.20;;
11220;SDS011;8517;53.546;10.104;2024-02-15T02:39:33;19.73;;;16.27;;
11220;SDS011;8517;53.546;10.104;2024-02-15T02:42:00;18.40;;;16.50;;
11220;SDS011;8517;53.546;10.104;2024-02-15T02:44:28;20.37;;;16.70;;
11220;SDS011;8517;53.546;10.104;2024-02-15T02:46:55;19.80;;;15.73;;
11220;SDS011;8517;53.546;10.104;2024-02-15T02:49:22;18.50;;;15.57;;
11220;SDS011;8517;53.546;10.104;2024-02-15T02:51:48;20.60;;;16.10;;
11220;SDS011;8517;53.546;10.104;2024-02-15T02:54:15;18.70;;;14.67;;
11220;SDS011;8517;53.546;10.104;2024-02-15T02:56:42;21.43;;;16.33;;
11220;SDS011;8517;53.546;10.104;2024-02-15T02:59:10;20.60;;;16.67;;
11220;SDS011;8517;53.546;10.104;2024-02-15T03:01:39;20.10;;;15.70;;
11220;SDS011;8517;53.546;10.104;2024-02-15T03:04:06;20.33;;;17.53;;
11220;SDS011;8517;53.546;10.104;2024-02-15T03:06:33;19.27;;;14.63;;
11220;SDS011;8517;53.546;10.104;2024-02-15T03:09:00;17.87;;;13.97;;
11220;SDS011;8517;53.546;10.104;2024-02-15T03:11:28;18.70;;;14.70;;
11220;SDS011;8517;53.546;10.104;2024-02-15T03:13:54;16.67;;;14.40;;
11220;SDS011;8517;53.546;10.104;2024-02-15T03:16:24;15.27;;;12.60;;
11220;SDS011;8517;53.546;10.104;2024-02-15T03:18:53;16.63;;;14.77;;
11220;SDS011;8517;53.546;10.104;2024-02-15T03:21:20;14.77;;;13.10;;
11220;SDS011;8517;53.546;10.104;2024-02-15T03:23:47;15.07;;;13.47;;
11220;SDS011;8517;53.546;10.104;2024-02-15T03:26:14;17.57;;;12.83;;
11220;SDS011;8517;53.546;10.104;2024-02-15T03:28:41;13.33;;;11.77;;
11220;SDS011;8517;53.546;10.104;2024-02-15T03:31:09;16.23;;;11.73;;
11220;SDS011;8517;53.546;10.104;2024-02-15T03:33:36;12.23;;;10.93;;
11220;SDS011;8517;53.546;10.104;2024-02-15T03:36:05;11.17;;;10.00;;
11220;SDS011;8517;53.546;10.104;2024-02-15T03:38:32;12.07;;;10.77;;
11220;SDS011;8517;53.546;10.104;2024-02-15T03:40:59;19.87;;;12.07;;
11220;SDS011;8517;53.546;10.104;2024-02-15T03:43:27;12.57;;;10.40;;
11220;SDS011;8517;53.546;10.104;2024-02-15T03:45:54;12.97;;;10.83;;
11220;SDS011;8517;53.546;10.104;2024-02-15T03:48:20;15.70;;;11.23;;
11220;SDS011;8517;53.546;10.104;2024-02-15T03:50:47;14.40;;;11.47;;
11220;SDS011;8517;53.546;10.104;2024-02-15T03:53:15;12.90;;;11.27;;
11220;SDS011;8517;53.546;10.104;2024-02-15T03:55:42;17.77;;;12.23;;
11220;SDS011;8517;53.546;10.104;2024-02-15T03:58:09;16.53;;;13.17;;
11220;SDS011;8517;53.546;10.104;2024-02-15T04:00:37;15.23;;;11.60;;
11220;SDS011;8517;53.546;10.104;2024-02-15T04:03:05;18.10;;;13.37;;
11220;SDS011;8517;53.546;10.104;2024-02-15T04:05:32;19.83;;;14.17;;
11220;SDS011;8517;53.546;10.104;2024-02-15T04:07:59;19.17;;;14.00;;
11220;SDS011;8517;53.546;10.104;2024-02-15T04:10:28;18.63;;;14.30;;
11220;SDS011;8517;53.546;10.104;2024-02-15T04:12:55;20.13;;;14.40;;
11220;SDS011;8517;53.546;10.104;2024-02-15T04:15:23;17.37;;;14.63;;
11220;SDS011;8517;53.546;10.104;2024-02-15T04:17:50;17.97;;;14.60;;
11220;SDS011;8517;53.546;10.104;2024-02-15T04:20:21;21.83;;;15.83;;
11220;SDS011;8517;53.546;10.104;2024-02-15T04:22:47;21.80;;;16.30;;
11220;SDS011;8517;53.546;10.104;2024-02-15T04:25:15;24.63;;;15.70;;
11220;SDS011;8517;53.546;10.104;2024-02-15T04:27:45;23.93;;;15.83;;
11220;SDS011;8517;53.546;10.104;2024-02-15T04:30:44;22.83;;;16.60;;
11220;SDS011;8517;53.546;10.104;2024-02-15T04:33:13;23.87;;;16.90;;
11220;SDS011;8517;53.546;10.104;2024-02-15T04:35:40;24.60;;;16.90;;
11220;SDS011;8517;53.546;10.104;2024-02-15T04:38:07;24.83;;;16.80;;
11220;SDS011;8517;53.546;10.104;2024-02-15T04:40:34;22.53;;;16.50;;
11220;SDS011;8517;53.546;10.104;2024-02-15T04:43:04;23.53;;;17.27;;
11220;SDS011;8517;53.546;10.104;2024-02-15T04:45:31;24.90;;;17.37;;
11220;SDS011;8517;53.546;10.104;2024-02-15T04:47:58;25.53;;;17.67;;
11220;SDS011;8517;53.546;10.104;2024-02-15T04:50:27;24.53;;;17.90;;
11220;SDS011;8517;53.546;10.104;2024-02-15T04:52:54;29.17;;;19.03;;
11220;SDS011;8517;53.546;10.104;2024-02-15T04:55:21;23.20;;;16.57;;
11220;SDS011;8517;53.546;10.104;2024-02-15T04:57:48;18.93;;;14.87;;
11220;SDS011;8517;53.546;10.104;2024-02-15T05:00:21;26.37;;;18.23;;
11220;SDS011;8517;53.546;10.104;2024-02-15T05:02:50;25.00;;;18.17;;
11220;SDS011;8517;53.546;10.104;2024-02-15T05:05:18;24.90;;;18.37;;
11220;SDS011;8517;53.546;10.104;2024-02-15T05:07:45;23.77;;;16.77;;
11220;SDS011;8517;53.546;10.104;2024-02-15T05:10:14;25.57;;;19.43;;
11220;SDS011;8517;53.546;10.104;2024-02-15T05:12:41;27.13;;;20.23;;
11220;SDS011;8517;53.546;10.104;2024-02-15T05:15:09;31.97;;;18.93;;
11220;SDS011;8517;53.546;10.104;2024-02-15T05:17:37;29.50;;;20.07;;
11220;SDS011;8517;53.546;10.104;2024-02-15T05:20:06;21.37;;;15.27;;
11220;SDS011;8517;53.546;10.104;2024-02-15T05:22:36;26.13;;;19.60;;
11220;SDS011;8517;53.546;10.104;2024-02-15T05:25:05;25.90;;;19.33;;
11220;SDS011;8517;53.546;10.104;2024-02-15T05:30:24;26.40;;;19.43;;
11220;SDS011;8517;53.546;10.104;2024-02-15T05:32:59;25.83;;;18.00;;
11220;SDS011;8517;53.546;10.104;2024-02-15T05:35:26;24.53;;;18.03;;
11220;SDS011;8517;53.546;10.104;2024-02-15T05:37:53;23.50;;;17.97;;
11220;SDS011;8517;53.546;10.104;2024-02-15T05:40:21;26.30;;;18.87;;
11220;SDS011;8517;53.546;10.104;2024-02-15T05:42:47;26.10;;;18.33;;
11220;SDS011;8517;53.546;10.104;2024-02-15T05:45:27;29.23;;;20.87;;
11220;SDS011;8517;53.546;10.104;2024-02-15T05:47:57;35.37;;;25.47;;
11220;SDS011;8517;53.546;10.104;2024-02-15T05:50:26;25.53;;;18.90;;
11220;SDS011;8517;53.546;10.104;2024-02-15T05:52:54;24.80;;;19.00;;
11220;SDS011;8517;53.546;10.104;2024-02-15T05:55:23;65.43;;;46.20;;
11220;SDS011;8517;53.546;10.104;2024-02-15T05:57:51;29.47;;;22.30;;
11220;SDS011;8517;53.546;10.104;2024-02-15T06:00:19;32.00;;;21.23;;
11220;SDS011;8517;53.546;10.104;2024-02-15T06:02:46;27.53;;;19.70;;
11220;SDS011;8517;53.546;10.104;2024-02-15T06:05:15;42.57;;;29.57;;
11220;SDS011;8517;53.546;10.104;2024-02-15T06:07:43;32.40;;;23.00;;
11220;SDS011;8517;53.546;10.104;2024-02-15T06:10:11;26.63;;;18.87;;
11220;SDS011;8517;53.546;10.104;2024-02-15T06:12:38;27.07;;;19.50;;
11220;SDS011;8517;53.546;10.104;2024-02-15T06:15:05;28.03;;;19.43;;
11220;SDS011;8517;53.546;10.104;2024-02-15T06:17:39;25.23;;;18.37;;
11220;SDS011;8517;53.546;10.104;2024-02-15T06:23:23;28.33;;;19.90;;
11220;SDS011;8517;53.546;10.104;2024-02-15T06:25:51;28.50;;;19.83;;
11220;SDS011;8517;53.546;10.104;2024-02-15T06:28:19;29.40;;;18.93;;
11220;SDS011;8517;53.546;10.104;2024-02-15T06:31:06;30.53;;;20.73;;
11220;SDS011;8517;53.546;10.104;2024-02-15T06:33:52;29.80;;;20.10;;
11220;SDS011;8517;53.546;10.104;2024-02-15T06:36:39;30.47;;;18.97;;
11220;SDS011;8517;53.546;10.104;2024-02-15T06:39:25;30.57;;;20.40;;
11220;SDS011;8517;53.546;10.104;2024-02-15T06:42:07;30.63;;;19.57;;
11220;SDS011;8517;53.546;10.104;2024-02-15T06:44:33;30.50;;;19.80;;
11220;SDS011;8517;53.546;10.104;2024-02-15T06:47:00;34.90;;;21.30;;
11220;SDS011;8517;53.546;10.104;2024-02-15T06:49:27;32.13;;;19.93;;
11220;SDS011;8517;53.546;10.104;2024-02-15T06:51:54;29.30;;;19.50;;
11220;SDS011;8517;53.546;10.104;2024-02-15T06:54:21;39.00;;;20.90;;
11220;SDS011;8517;53.546;10.104;2024-02-15T06:56:50;29.37;;;19.67;;
11220;SDS011;8517;53.546;10.104;2024-02-15T06:59:19;31.50;;;18.83;;
11220;SDS011;8517;53.546;10.104;2024-02-15T07:01:47;28.30;;;19.23;;
11220;SDS011;8517;53.546;10.104;2024-02-15T07:04:14;26.13;;;18.47;;
11220;SDS011;8517;53.546;10.104;2024-02-15T07:06:41;28.53;;;18.93;;
11220;SDS011;8517;53.546;10.104;2024-02-15T07:09:10;28.27;;;18.30;;
11220;SDS011;8517;53.546;10.104;2024-02-15T07:11:37;28.17;;;18.30;;
11220;SDS011;8517;53.546;10.104;2024-02-15T07:14:06;27.07;;;19.47;;
11220;SDS011;8517;53.546;10.104;2024-02-15T07:16:34;26.93;;;18.10;;
11220;SDS011;8517;53.546;10.104;2024-02-15T07:19:01;26.33;;;18.83;;
11220;SDS011;8517;53.546;10.104;2024-02-15T07:21:28;29.57;;;19.20;;
11220;SDS011;8517;53.546;10.104;2024-02-15T07:23:56;30.20;;;19.73;;
11220;SDS011;8517;53.546;10.104;2024-02-15T07:26:24;30.10;;;17.97;;
11220;SDS011;8517;53.546;10.104;2024-02-15T07:28:51;33.27;;;20.50;;
11220;SDS011;8517;53.546;10.104;2024-02-15T07:31:20;34.37;;;21.37;;
11220;SDS011;8517;53.546;10.104;2024-02-15T07:33:48;35.33;;;20.90;;
11220;SDS011;8517;53.546;10.104;2024-02-15T07:36:17;34.90;;;21.20;;
11220;SDS011;8517;53.546;10.104;2024-02-15T07:38:46;31.00;;;20.37;;
11220;SDS011;8517;53.546;10.104;2024-02-15T07:41:13;32.53;;;20.93;;
11220;SDS011;8517;53.546;10.104;2024-02-15T07:43:40;36.90;;;22.90;;
11220;SDS011;8517;53.546;10.104;2024-02-15T07:46:08;34.60;;;22.57;;
11220;SDS011;8517;53.546;10.104;2024-02-15T07:48:39;31.30;;;20.97;;
11220;SDS011;8517;53.546;10.104;2024-02-15T07:51:10;30.37;;;20.17;;
11220;SDS011;8517;53.546;10.104;2024-02-15T07:53:37;29.20;;;19.63;;
11220;SDS011;8517;53.546;10.104;2024-02-15T07:56:05;28.53;;;19.67;;
11220;SDS011;8517;53.546;10.104;2024-02-15T07:58:32;30.47;;;19.97;;
11220;SDS011;8517;53.546;10.104;2024-02-15T08:00:59;30.40;;;19.20;;
11220;SDS011;8517;53.546;10.104;2024-02-15T08:03:26;28.97;;;18.37;;
11220;SDS011;8517;53.546;10.104;2024-02-15T08:05:56;28.80;;;20.63;;
11220;SDS011;8517;53.546;10.104;2024-02-15T08:08:23;29.10;;;19.00;;
11220;SDS011;8517;53.546;10.104;2024-02-15T08:10:49;28.17;;;17.00;;
11220;SDS011;8517;53.546;10.104;2024-02-15T08:13:16;29.77;;;18.43;;
11220;SDS011;8517;53.546;10.104;2024-02-15T08:15:47;26.03;;;17.10;;
11220;SDS011;8517;53.546;10.104;2024-02-15T08:18:17;32.50;;;18.57;;
11220;SDS011;8517;53.546;10.104;2024-02-15T08:20:45;27.60;;;17.27;;
11220;SDS011;8517;53.546;10.104;2024-02-15T08:23:13;25.57;;;18.03;;
11220;SDS011;8517;53.546;10.104;2024-02-15T08:25:40;25.17;;;18.30;;
11220;SDS011;8517;53.546;10.104;2024-02-15T08:28:07;25.47;;;17.97;;
11220;SDS011;8517;53.546;10.104;2024-02-15T08:30:34;21.43;;;16.07;;
11220;SDS011;8517;53.546;10.104;2024-02-15T08:33:02;23.17;;;16.77;;
11220;SDS011;8517;53.546;10.104;2024-02-15T08:35:30;21.03;;;16.03;;
11220;SDS011;8517;53.546;10.104;2024-02-15T08:37:57;19.87;;;13.73;;
11220;SDS011;8517;53.546;10.104;2024-02-15T08:40:28;16.60;;;13.40;;
11220;SDS011;8517;53.546;10.104;2024-02-15T08:42:54;17.53;;;12.97;;
11220;SDS011;8517;53.546;10.104;2024-02-15T08:45:21;16.33;;;12.43;;
11220;SDS011;8517;53.546;10.104;2024-02-15T08:47:48;16.70;;;12.23;;
11220;SDS011;8517;53.546;10.104;2024-02-15T08:50:17;15.10;;;11.53;;
11220;SDS011;8517;53.546;10.104;2024-02-15T08:52:47;16.17;;;12.33;;
11220;SDS011;8517;53.546;10.104;2024-02-15T08:55:14;15.43;;;11.77;;
11220;SDS011;8517;53.546;10.104;2024-02-15T08:57:43;15.07;;;11.73;;
11220;SDS011;8517;53.546;10.104;2024-02-15T09:00:10;13.83;;;10.93;;
11220;SDS011;8517;53.546;10.104;2024-02-15T09:02:41;12.30;;;10.80;;
11220;SDS011;8517;53.546;10.104;2024-02-15T09:05:08;13.47;;;11.20;;
11220;SDS011;8517;53.546;10.104;2024-02-15T09:07:39;13.13;;;11.37;;
11220;SDS011;8517;53.546;10.104;2024-02-15T09:10:07;13.10;;;10.73;;
11220;SDS011;8517;53.546;10.104;2024-02-15T09:12:36;14.93;;;11.43;;
11220;SDS011;8517;53.546;10.104;2024-02-15T09:15:06;15.60;;;10.57;;
11220;SDS011;8517;53.546;10.104;2024-02-15T09:17:34;11.90;;;10.30;;
11220;SDS011;8517;53.546;10.104;2024-02-15T09:20:05;13.30;;;10.13;;
11220;SDS011;8517;53.546;10.104;2024-02-15T09:22:33;14.47;;;10.47;;
11220;SDS011;8517;53.546;10.104;2024-02-15T09:25:01;13.77;;;9.77;;
11220;SDS011;8517;53.546;10.104;2024-02-15T09:27:28;12.20;;;9.20;;
11220;SDS011;8517;53.546;10.104;2024-02-15T09:29:55;13.70;;;10.50;;
11220;SDS011;8517;53.546;10.104;2024-02-15T09:32:23;13.57;;;9.83;;
11220;SDS011;8517;53.546;10.104;2024-02-15T09:34:50;11.73;;;9.67;;
11220;SDS011;8517;53.546;10.104;2024-02-15T09:37:16;11.73;;;10.50;;
11220;SDS011;8517;53.546;10.104;2024-02-15T09:39:43;13.63;;;9.60;;
11220;SDS011;8517;53.546;10.104;2024-02-15T09:42:11;10.43;;;8.67;;
11220;SDS011;8517;53.546;10.104;2024-02-15T09:44:38;10.90;;;9.20;;
11220;SDS011;8517;53.546;10.104;2024-02-15T09:47:06;11.17;;;9.67;;
11220;SDS011;8517;53.546;10.104;2024-02-15T09:49:36;11.03;;;9.70;;
11220;SDS011;8517;53.546;10.104;2024-02-15T09:52:04;13.97;;;10.47;;
11220;SDS011;8517;53.546;10.104;2024-02-15T09:54:36;12.47;;;9.77;;
11220;SDS011;8517;53.546;10.104;2024-02-15T09:57:05;10.70;;;9.60;;
11220;SDS011;8517;53.546;10.104;2024-02-15T09:59:33;10.70;;;9.60;;
11220;SDS011;8517;53.546;10.104;2024-02-15T10:02:01;11.97;;;9.90;;
11220;SDS011;8517;53.546;10.104;2024-02-15T10:04:28;12.57;;;10.23;;
11220;SDS011;8517;53.546;10.104;2024-02-15T10:06:56;14.77;;;10.60;;
11220;SDS011;8517;53.546;10.104;2024-02-15T10:09:24;11.70;;;9.90;;
11220;SDS011;8517;53.546;10.104;2024-02-15T10:11:55;14.10;;;12.23;;
11220;SDS011;8517;53.546;10.104;2024-02-15T10:14:23;17.60;;;12.57;;
11220;SDS011;8517;53.546;10.104;2024-02-15T10:16:50;15.17;;;12.40;;
11220;SDS011;8517;53.546;10.104;2024-02-15T10:19:19;16.90;;;13.23;;
11220;SDS011;8517;53.546;10.104;2024-02-15T10:21:50;16.87;;;13.03;;
11220;SDS011;8517;53.546;10.104;2024-02-15T10:24:21;17.70;;;13.80;;
11220;SDS011;8517;53.546;10.104;2024-02-15T10:26:49;17.40;;;14.53;;
11220;SDS011;8517;53.546;10.104;2024-02-15T10:29:16;17.53;;;14.33;;
11220;SDS011;8517;53.546;10.104;2024-02-15T10:31:52;16.77;;;14.03;;
11220;SDS011;8517;53.546;10.104;2024-02-15T10:34:19;15.60;;;13.37;;
11220;SDS011;8517;53.546;10.104;2024-02-15T10:36:46;19.40;;;14.47;;
11220;SDS011;8517;53.546;10.104;2024-02-15T10:39:15;17.37;;;14.33;;
11220;SDS011;8517;53.546;10.104;2024-02-15T10:41:48;19.63;;;14.97;;
11220;SDS011;8517;53.546;10.104;2024-02-15T10:44:17;16.87;;;14.33;;
11220;SDS011;8517;53.546;10.104;2024-02-15T10:46:46;16.20;;;14.17;;
11220;SDS011;8517;53.546;10.104;2024-02-15T10:49:16;19.90;;;15.30;;
11220;SDS011;8517;53.546;10.104;2024-02-15T10:51:44;20.40;;;15.37;;
11220;SDS011;8517;53.546;10.104;2024-02-15T10:54:15;18.03;;;15.63;;
11220;SDS011;8517;53.546;10.104;2024-02-15T10:56:53;23.23;;;17.33;;
11220;SDS011;8517;53.546;10.104;2024-02-15T10:59:24;22.27;;;16.47;;
11220;SDS011;8517;53.546;10.104;2024-02-15T11:01:58;22.73;;;18.63;;
11220;SDS011;8517;53.546;10.104;2024-02-15T11:04:29;25.63;;;18.20;;
11220;SDS011;8517;53.546;10.104;2024-02-15T11:07:01;24.33;;;18.67;;
11220;SDS011;8517;53.546;10.104;2024-02-15T11:09:31;28.60;;;18.93;;
11220;SDS011;8517;53.546;10.104;2024-02-15T11:11:59;25.20;;;18.47;;
11220;SDS011;8517;53.546;10.104;2024-02-15T11:14:27;25.13;;;19.40;;
11220;SDS011;8517;53.546;10.104;2024-02-15T11:16:54;25.67;;;19.20;;
11220;SDS011;8517;53.546;10.104;2024-02-15T11:22:16;25.13;;;20.40;;
11220;SDS011;8517;53.546;10.104;2024-02-15T11:24:47;24.93;;;20.40;;
11220;SDS011;8517;53.546;10.104;2024-02-15T11:27:25;28.67;;;20.87;;
11220;SDS011;8517;53.546;10.104;2024-02-15T11:29:55;24.43;;;19.77;;
11220;SDS011;8517;53.546;10.104;2024-02-15T11:32:34;30.50;;;20.43;;
11220;SDS011;8517;53.546;10.104;2024-02-15T11:35:03;30.37;;;21.57;;
11220;SDS011;8517;53.546;10.104;2024-02-15T11:40:23;27.30;;;20.40;;
11220;SDS011;8517;53.546;10.104;2024-02-15T11:42:53;26.37;;;20.83;;
11220;SDS011;8517;53.546;10.104;2024-02-15T11:45:22;30.93;;;21.37;;
11220;SDS011;8517;53.546;10.104;2024-02-15T11:47:50;29.73;;;21.43;;
11220;SDS011;8517;53.546;10.104;2024-02-15T11:50:19;34.53;;;22.10;;
11220;SDS011;8517;53.546;10.104;2024-02-15T11:52:47;30.30;;;22.53;;
11220;SDS011;8517;53.546;10.104;2024-02-15T11:55:17;29.27;;;21.37;;
11220;SDS011;8517;53.546;10.104;2024-02-15T11:57:56;30.33;;;21.27;;
11220;SDS011;8517;53.546;10.104;2024-02-15T12:00:30;26.07;;;21.23;;
11220;SDS011;8517;53.546;10.104;2024-02-15T12:03:30;29.83;;;22.60;;
11220;SDS011;8517;53.546;10.104;2024-02-15T12:06:16;27.20;;;22.57;;
11220;SDS011;8517;53.546;10.104;2024-02-15T12:09:01;28.60;;;23.33;;
11220;SDS011;8517;53.546;10.104;2024-02-15T12:11:46;29.17;;;22.47;;
11220;SDS011;8517;53.546;10.104;2024-02-15T12:14:32;33.63;;;24.87;;
11220;SDS011;8517;53.546;10.104;2024-02-15T12:17:19;34.43;;;22.07;;
11220;SDS011;8517;53.546;10.104;2024-02-15T12:20:07;31.40;;;23.63;;
11220;SDS011;8517;53.546;10.104;2024-02-15T12:22:36;34.43;;;25.60;;
11220;SDS011;8517;53.546;10.104;2024-02-15T12:25:07;33.17;;;25.93;;
11220;SDS011;8517;53.546;10.104;2024-02-15T12:27:39;35.13;;;24.93;;
11220;SDS011;8517;53.546;10.104;2024-02-15T12:30:12;30.87;;;23.20;;
11220;SDS011;8517;53.546;10.104;2024-02-15T12:32:40;29.27;;;22.47;;
11220;SDS011;8517;53.546;10.104;2024-02-15T12:35:10;27.97;;;21.83;;
11220;SDS011;8517;53.546;10.104;2024-02-15T12:37:41;28.77;;;22.20;;
11220;SDS011;8517;53.546;10.104;2024-02-15T12:40:12;25.73;;;20.37;;
11220;SDS011;8517;53.546;10.104;2024-02-15T12:42:42;26.67;;;20.97;;
11220;SDS011;8517;53.546;10.104;2024-02-15T12:45:16;24.10;;;19.43;;
11220;SDS011;8517;53.546;10.104;2024-02-15T12:47:47;24.03;;;19.53;;
11220;SDS011;8517;53.546;10.104;2024-02-15T12:50:15;22.90;;;18.10;;
11220;SDS011;8517;53.546;10.104;2024-02-15T12:52:42;23.83;;;19.33;;
11220;SDS011;8517;53.546;10.104;2024-02-15T12:55:13;23.43;;;19.03;;
11220;SDS011;8517;53.546;10.104;2024-02-15T12:57:41;22.67;;;17.70;;
11220;SDS011;8517;53.546;10.104;2024-02-15T13:00:13;23.37;;;17.80;;
11220;SDS011;8517;53.546;10.104;2024-02-15T13:02:45;20.20;;;16.37;;
11220;SDS011;8517;53.546;10.104;2024-02-15T13:05:14;17.87;;;14.80;;
11220;SDS011;8517;53.546;10.104;2024-02-15T13:07:43;18.10;;;15.67;;
11220;SDS011;8517;53.546;10.104;2024-02-15T13:10:10;18.93;;;14.27;;
11220;SDS011;8517;53.546;10.104;2024-02-15T13:12:39;18.83;;;14.63;;
11220;SDS011;8517;53.546;10.104;2024-02-15T13:15:08;17.80;;;14.50;;
11220;SDS011;8517;53.546;10.104;2024-02-15T13:17:39;20.80;;;15.20;;
11220;SDS011;8517;53.546;10.104;2024-02-15T13:20:08;16.53;;;14.73;;
11220;SDS011;8517;53.546;10.104;2024-02-15T13:22:38;16.73;;;13.97;;
11220;SDS011;8517;53.546;10.104;2024-02-15T13:25:06;14.97;;;13.23;;
11220;SDS011;8517;53.546;10.104;2024-02-15T13:27:33;17.70;;;12.73;;
11220;SDS011;8517;53.546;10.104;2024-02-15T13:30:01;12.70;;;11.40;;
11220;SDS011;8517;53.546;10.104;2024-02-15T13:32:28;12.90;;;11.40;;
11220;SDS011;8517;53.546;10.104;2024-02-15T13:34:55;13.77;;;10.40;;
11220;SDS011;8517;53.546;10.104;2024-02-15T13:37:25;11.33;;;9.70;;
11220;SDS011;8517;53.546;10.104;2024-02-15T13:39:52;10.17;;;9.10;;
11220;SDS011;8517;53.546;10.104;2024-02-15T13:42:20;9.97;;;8.37;;
11220;SDS011;8517;53.546;10.104;2024-02-15T13:44:46;11.70;;;8.53;;
11220;SDS011;8517;53.546;10.104;2024-02-15T13:47:13;11.00;;;8.40;;
11220;SDS011;8517;53.546;10.104;2024-02-15T13:49:41;7.80;;;7.03;;
11220;SDS011;8517;53.546;10.104;2024-02-15T13:52:08;10.83;;;8.43;;
11220;SDS011;8517;53.546;10.104;2024-02-15T13:54:37;9.97;;;8.67;;
11220;SDS011;8517;53.546;10.104;2024-02-15T13:57:04;11.57;;;8.70;;
11220;SDS011;8517;53.546;10.104;2024-02-15T13:59:32;10.53;;;8.07;;
11220;SDS011;8517;53.546;10.104;2024-02-15T14:01:59;11.60;;;9.47;;
11220;SDS011;8517;53.546;10.104;2024-02-15T14:04:28;13.33;;;9.93;;
11220;SDS011;8517;53.546;10.104;2024-02-15T14:06:57;14.47;;;11.20;;
11220;SDS011;8517;53.546;10.104;2024-02-15T14:09:24;16.53;;;11.00;;
11220;SDS011;8517;53.546;10.104;2024-02-15T14:11:52;10.73;;;9.07;;
11220;SDS011;8517;53.546;10.104;2024-02-15T14:14:19;10.87;;;9.07;;
11220;SDS011;8517;53.546;10.104;2024-02-15T14:16:47;9.90;;;8.90;;
11220;SDS011;8517;53.546;10.104;2024-02-15T14:19:14;9.67;;;7.87;;
11220;SDS011;8517;53.546;10.104;2024-02-15T14:21:40;9.53;;;8.50;;
11220;SDS011;8517;53.546;10.104;2024-02-15T14:24:10;9.27;;;8.30;;
11220;SDS011;8517;53.546;10.104;2024-02-15T14:26:37;13.13;;;9.20;;
11220;SDS011;8517;53.546;10.104;2024-02-15T14:29:05;11.50;;;8.07;;
11220;SDS011;8517;53.546;10.104;2024-02-15T14:31:32;9.37;;;7.23;;
11220;SDS011;8517;53.546;10.104;2024-02-15T14:34:16;10.57;;;7.83;;
11220;SDS011;8517;53.546;10.104;2024-02-15T14:36:45;9.97;;;7.07;;
11220;SDS011;8517;53.546;10.104;2024-02-15T14:39:12;10.43;;;7.23;;
11220;SDS011;8517;53.546;10.104;2024-02-15T14:41:39;13.53;;;8.00;;
11220;SDS011;8517;53.546;10.104;2024-02-15T14:44:09;10.57;;;8.87;;
11220;SDS011;8517;53.546;10.104;2024-02-15T14:46:37;11.13;;;9.77;;